Terminal Aerodrome Forecast
Issued by NWS Jacksonville, FL

Home | Current Version | Previous Version | Text Only | Print | Product List | Glossary On
Versions: 1 2 3 4 5 6 7 8 9 10 11 12 13 14 15 16 17 18 19 20 21 22 23 24 25 26 27 28 29 30 31 32 33 34 35 36
424
FTUS42 KJAX 242330 AAA
TAFJAX
TAF AMD
KJAX 242330Z 2500/2524 22008KT P6SM VCSH OVC035 WS020/23050KT
      TEMPO 2500/2502 VRB10G20KT 3SM SHRA OVC020
     FM250500 23010KT P6SM SCT025 BKN040
     FM251300 26012KT P6SM SCT040 SCT250
     FM251600 26014G24KT P6SM FEW250
     FM252200 27010KT P6SM SKC=

USA.gov is the U.S. government's official web portal to all federal, state and local government web resources and services.